sensor_id;sensor_type;location;lat;lon;timestamp;pressure;altitude;pressure_sealevel;temperature;humidity
39823;BME280;25499;53.958;10.970;2023-12-04T07:07:10;101438.16;;;-4.43;100.00
39823;BME280;25499;53.958;10.970;2023-12-04T07:09:37;101440.56;;;-4.33;100.00
39823;BME280;25499;53.958;10.970;2023-12-04T07:12:07;101437.47;;;-4.29;100.00
39823;BME280;25499;53.958;10.970;2023-12-04T07:14:33;101441.34;;;-4.34;100.00
39823;BME280;25499;53.958;10.970;2023-12-04T07:17:01;101432.16;;;-4.32;100.00
39823;BME280;25499;53.958;10.970;2023-12-04T07:19:28;101433.63;;;-4.36;100.00
39823;BME280;25499;53.958;10.970;2023-12-04T07:21:56;101431.69;;;-4.26;100.00
39823;BME280;25499;53.958;10.970;2023-12-04T07:24:25;101425.72;;;-4.27;100.00
39823;BME280;25499;53.958;10.970;2023-12-04T07:26:52;101427.03;;;-4.20;100.00
39823;BME280;25499;53.958;10.970;2023-12-04T07:29:19;101422.59;;;-4.23;100.00
39823;BME280;25499;53.958;10.970;2023-12-04T07:31:46;101415.31;;;-4.18;100.00
39823;BME280;25499;53.958;10.970;2023-12-04T07:34:13;101438.06;;;-4.20;100.00
39823;BME280;25499;53.958;10.970;2023-12-04T07:36:40;101432.50;;;-4.14;100.00
39823;BME280;25499;53.958;10.970;2023-12-04T07:39:07;101441.91;;;-4.13;100.00
39823;BME280;25499;53.958;10.970;2023-12-04T07:41:36;101428.16;;;-4.03;100.00
39823;BME280;25499;53.958;10.970;2023-12-04T07:44:03;101428.06;;;-4.05;100.00
39823;BME280;25499;53.958;10.970;2023-12-04T07:46:30;101429.84;;;-4.04;100.00
39823;BME280;25499;53.958;10.970;2023-12-04T07:48:57;101443.22;;;-4.06;100.00
39823;BME280;25499;53.958;10.970;2023-12-04T07:51:24;101457.47;;;-4.08;100.00
39823;BME280;25499;53.958;10.970;2023-12-04T07:53:50;101452.59;;;-4.05;100.00
39823;BME280;25499;53.958;10.970;2023-12-04T07:56:17;101451.91;;;-4.03;100.00
39823;BME280;25499;53.958;10.970;2023-12-04T07:58:46;101454.25;;;-4.06;100.00
39823;BME280;25499;53.958;10.970;2023-12-04T08:01:13;101452.34;;;-3.97;100.00
39823;BME280;25499;53.958;10.970;2023-12-04T08:03:40;101445.25;;;-4.01;100.00
39823;BME280;25499;53.958;10.970;2023-12-04T08:06:07;101446.09;;;-3.88;100.00
39823;BME280;25499;53.958;10.970;2023-12-04T08:08:34;101448.44;;;-3.91;100.00
39823;BME280;25499;53.958;10.970;2023-12-04T08:11:01;101443.56;;;-3.88;100.00
39823;BME280;25499;53.958;10.970;2023-12-04T08:13:28;101439.56;;;-3.85;100.00
39823;BME280;25499;53.958;10.970;2023-12-04T08:15:58;101444.16;;;-3.79;100.00
39823;BME280;25499;53.958;10.970;2023-12-04T08:18:26;101440.94;;;-3.77;100.00
39823;BME280;25499;53.958;10.970;2023-12-04T08:20:53;101437.22;;;-3.82;100.00
39823;BME280;25499;53.958;10.970;2023-12-04T08:23:20;101437.22;;;-3.68;100.00
39823;BME280;25499;53.958;10.970;2023-12-04T08:25:46;101438.13;;;-3.68;100.00
39823;BME280;25499;53.958;10.970;2023-12-04T08:28:14;101436.66;;;-3.64;100.00
39823;BME280;25499;53.958;10.970;2023-12-04T08:30:41;101426.84;;;-3.58;100.00
39823;BME280;25499;53.958;10.970;2023-12-04T08:33:09;101440.59;;;-3.56;100.00
39823;BME280;25499;53.958;10.970;2023-12-04T08:35:36;101422.78;;;-3.56;100.00
39823;BME280;25499;53.958;10.970;2023-12-04T08:38:04;101417.94;;;-3.51;100.00
39823;BME280;25499;53.958;10.970;2023-12-04T08:40:31;101421.50;;;-3.49;100.00
39823;BME280;25499;53.958;10.970;2023-12-04T08:42:58;101427.16;;;-3.40;100.00
39823;BME280;25499;53.958;10.970;2023-12-04T08:45:25;101422.94;;;-3.40;100.00
39823;BME280;25499;53.958;10.970;2023-12-04T08:47:51;101416.31;;;-3.38;100.00
39823;BME280;25499;53.958;10.970;2023-12-04T08:50:20;101418.97;;;-3.36;100.00
39823;BME280;25499;53.958;10.970;2023-12-04T08:52:47;101413.47;;;-3.29;100.00
39823;BME280;25499;53.958;10.970;2023-12-04T08:55:13;101412.31;;;-3.34;100.00
39823;BME280;25499;53.958;10.970;2023-12-04T08:57:40;101411.31;;;-3.36;100.00
39823;BME280;25499;53.958;10.970;2023-12-04T09:00:08;101401.91;;;-3.37;100.00
39823;BME280;25499;53.958;10.970;2023-12-04T09:02:35;101395.25;;;-3.35;100.00
39823;BME280;25499;53.958;10.970;2023-12-04T09:05:02;101393.00;;;-3.30;100.00
39823;BME280;25499;53.958;10.970;2023-12-04T09:07:30;101397.41;;;-3.28;100.00
39823;BME280;25499;53.958;10.970;2023-12-04T09:09:58;101399.94;;;-3.28;100.00
39823;BME280;25499;53.958;10.970;2023-12-04T09:12:24;101399.56;;;-3.21;100.00
39823;BME280;25499;53.958;10.970;2023-12-04T09:14:52;101401.50;;;-3.16;100.00
39823;BME280;25499;53.958;10.970;2023-12-04T09:17:18;101394.75;;;-3.16;100.00
39823;BME280;25499;53.958;10.970;2023-12-04T09:19:46;101400.84;;;-3.14;100.00
39823;BME280;25499;53.958;10.970;2023-12-04T09:22:13;101398.75;;;-3.06;100.00
39823;BME280;25499;53.958;10.970;2023-12-04T09:24:41;101403.16;;;-3.04;100.00
39823;BME280;25499;53.958;10.970;2023-12-04T09:27:08;101400.44;;;-3.07;100.00
39823;BME280;25499;53.958;10.970;2023-12-04T09:29:34;101399.25;;;-2.98;100.00
39823;BME280;25499;53.958;10.970;2023-12-04T09:32:01;101399.03;;;-3.02;100.00
39823;BME280;25499;53.958;10.970;2023-12-04T09:34:28;101405.78;;;-3.02;100.00
39823;BME280;25499;53.958;10.970;2023-12-04T09:36:55;101420.38;;;-3.00;100.00
39823;BME280;25499;53.958;10.970;2023-12-04T09:39:23;101420.38;;;-3.00;100.00
39823;BME280;25499;53.958;10.970;2023-12-04T09:41:52;101408.81;;;-2.94;100.00
39823;BME280;25499;53.958;10.970;2023-12-04T09:44:19;101414.97;;;-2.91;100.00
39823;BME280;25499;53.958;10.970;2023-12-04T09:46:46;101404.47;;;-2.82;100.00
39823;BME280;25499;53.958;10.970;2023-12-04T09:49:14;101400.75;;;-2.87;100.00
39823;BME280;25499;53.958;10.970;2023-12-04T09:51:42;101390.09;;;-2.82;100.00
39823;BME280;25499;53.958;10.970;2023-12-04T09:54:09;101388.28;;;-2.69;100.00
39823;BME280;25499;53.958;10.970;2023-12-04T09:56:36;101387.31;;;-2.71;100.00
39823;BME280;25499;53.958;10.970;2023-12-04T09:59:06;101383.63;;;-2.62;100.00
39823;BME280;25499;53.958;10.970;2023-12-04T10:01:35;101380.69;;;-2.54;100.00
39823;BME280;25499;53.958;10.970;2023-12-04T10:04:03;101384.09;;;-2.54;100.00
39823;BME280;25499;53.958;10.970;2023-12-04T10:06:31;101384.97;;;-2.53;100.00
39823;BME280;25499;53.958;10.970;2023-12-04T10:08:58;101385.25;;;-2.49;100.00
39823;BME280;25499;53.958;10.970;2023-12-04T10:11:25;101381.00;;;-2.63;100.00
39823;BME280;25499;53.958;10.970;2023-12-04T10:13:54;101378.53;;;-2.62;100.00
39823;BME280;25499;53.958;10.970;2023-12-04T10:16:34;101376.06;;;-2.60;100.00
39823;BME280;25499;53.958;10.970;2023-12-04T10:21:51;101368.19;;;-2.50;100.00
39823;BME280;25499;53.958;10.970;2023-12-04T10:24:32;101365.88;;;-2.60;100.00
39823;BME280;25499;53.958;10.970;2023-12-04T10:27:01;101360.44;;;-2.51;100.00
39823;BME280;25499;53.958;10.970;2023-12-04T10:29:40;101351.84;;;-2.53;100.00
39823;BME280;25499;53.958;10.970;2023-12-04T10:32:09;101359.81;;;-2.62;100.00
39823;BME280;25499;53.958;10.970;2023-12-04T10:34:36;101348.50;;;-2.52;100.00
39823;BME280;25499;53.958;10.970;2023-12-04T10:37:03;101353.28;;;-2.44;100.00
39823;BME280;25499;53.958;10.970;2023-12-04T10:39:31;101350.81;;;-2.42;100.00
39823;BME280;25499;53.958;10.970;2023-12-04T10:42:02;101351.59;;;-2.43;100.00
39823;BME280;25499;53.958;10.970;2023-12-04T10:44:30;101353.72;;;-2.51;100.00
39823;BME280;25499;53.958;10.970;2023-12-04T10:47:00;101350.53;;;-2.47;100.00
39823;BME280;25499;53.958;10.970;2023-12-04T10:49:28;101352.75;;;-2.38;100.00
39823;BME280;25499;53.958;10.970;2023-12-04T10:51:57;101345.09;;;-2.38;100.00
39823;BME280;25499;53.958;10.970;2023-12-04T10:54:25;101344.31;;;-2.37;100.00
39823;BME280;25499;53.958;10.970;2023-12-04T10:56:52;101332.38;;;-2.23;100.00
39823;BME280;25499;53.958;10.970;2023-12-04T10:59:27;101334.13;;;-2.37;100.00
39823;BME280;25499;53.958;10.970;2023-12-04T11:02:00;101321.28;;;-2.38;100.00
39823;BME280;25499;53.958;10.970;2023-12-04T11:04:31;101327.25;;;-2.38;100.00
39823;BME280;25499;53.958;10.970;2023-12-04T11:06:59;101309.25;;;-2.41;100.00
39823;BME280;25499;53.958;10.970;2023-12-04T11:09:29;101303.72;;;-2.34;100.00
39823;BME280;25499;53.958;10.970;2023-12-04T11:12:03;101305.44;;;-2.33;100.00
39823;BME280;25499;53.958;10.970;2023-12-04T11:14:36;101301.41;;;-2.29;100.00
39823;BME280;25499;53.958;10.970;2023-12-04T11:17:04;101298.25;;;-2.25;100.00
39823;BME280;25499;53.958;10.970;2023-12-04T11:19:41;101299.84;;;-2.27;100.00
39823;BME280;25499;53.958;10.970;2023-12-04T11:22:11;101299.31;;;-2.21;100.00
39823;BME280;25499;53.958;10.970;2023-12-04T11:24:40;101301.50;;;-2.13;100.00
39823;BME280;25499;53.958;10.970;2023-12-04T11:27:08;101294.38;;;-2.18;100.00
39823;BME280;25499;53.958;10.970;2023-12-04T11:29:35;101292.16;;;-2.12;100.00
39823;BME280;25499;53.958;10.970;2023-12-04T11:32:05;101286.28;;;-2.26;100.00
39823;BME280;25499;53.958;10.970;2023-12-04T11:34:32;101294.47;;;-2.17;100.00
39823;BME280;25499;53.958;10.970;2023-12-04T11:37:01;101283.66;;;-2.13;100.00
39823;BME280;25499;53.958;10.970;2023-12-04T11:39:29;101283.13;;;-2.22;100.00
39823;BME280;25499;53.958;10.970;2023-12-04T11:42:00;101275.47;;;-2.22;100.00
39823;BME280;25499;53.958;10.970;2023-12-04T11:44:31;101271.16;;;-2.23;100.00
39823;BME280;25499;53.958;10.970;2023-12-04T11:47:03;101262.66;;;-2.23;100.00
39823;BME280;25499;53.958;10.970;2023-12-04T11:49:30;101268.69;;;-2.07;100.00
39823;BME280;25499;53.958;10.970;2023-12-04T11:51:59;101268.16;;;-2.01;100.00
39823;BME280;25499;53.958;10.970;2023-12-04T11:54:28;101268.53;;;-2.10;100.00
39823;BME280;25499;53.958;10.970;2023-12-04T11:57:20;101261.13;;;-2.05;100.00
39823;BME280;25499;53.958;10.970;2023-12-04T11:59:48;101252.50;;;-2.07;100.00
39823;BME280;25499;53.958;10.970;2023-12-04T12:02:15;101244.34;;;-2.16;100.00
39823;BME280;25499;53.958;10.970;2023-12-04T12:04:43;101239.25;;;-2.16;100.00
39823;BME280;25499;53.958;10.970;2023-12-04T12:07:11;101240.81;;;-2.03;100.00
39823;BME280;25499;53.958;10.970;2023-12-04T12:09:39;101235.28;;;-2.11;100.00
39823;BME280;25499;53.958;10.970;2023-12-04T12:12:07;101229.13;;;-2.15;100.00
39823;BME280;25499;53.958;10.970;2023-12-04T12:14:34;101226.84;;;-2.10;100.00
39823;BME280;25499;53.958;10.970;2023-12-04T12:17:01;101221.88;;;-2.07;100.00
39823;BME280;25499;53.958;10.970;2023-12-04T12:19:28;101216.78;;;-2.07;100.00
39823;BME280;25499;53.958;10.970;2023-12-04T12:21:55;101219.09;;;-2.12;100.00
39823;BME280;25499;53.958;10.970;2023-12-04T12:24:23;101217.69;;;-2.07;100.00
39823;BME280;25499;53.958;10.970;2023-12-04T12:26:51;101212.41;;;-2.10;100.00
39823;BME280;25499;53.958;10.970;2023-12-04T12:29:18;101199.06;;;-2.20;100.00
39823;BME280;25499;53.958;10.970;2023-12-04T12:31:45;101195.78;;;-2.18;100.00
39823;BME280;25499;53.958;10.970;2023-12-04T12:34:14;101195.97;;;-2.15;100.00
39823;BME280;25499;53.958;10.970;2023-12-04T12:36:41;101194.00;;;-2.04;100.00
39823;BME280;25499;53.958;10.970;2023-12-04T12:39:08;101196.38;;;-2.07;100.00
39823;BME280;25499;53.958;10.970;2023-12-04T12:41:38;101188.41;;;-2.13;100.00
39823;BME280;25499;53.958;10.970;2023-12-04T12:44:07;101181.31;;;-2.19;100.00
39823;BME280;25499;53.958;10.970;2023-12-04T12:46:34;101188.50;;;-2.12;100.00
39823;BME280;25499;53.958;10.970;2023-12-04T12:49:03;101186.03;;;-2.10;100.00
39823;BME280;25499;53.958;10.970;2023-12-04T12:51:30;101190.50;;;-2.06;100.00
39823;BME280;25499;53.958;10.970;2023-12-04T12:53:57;101181.97;;;-2.07;100.00
39823;BME280;25499;53.958;10.970;2023-12-04T12:56:25;101181.00;;;-2.09;100.00
39823;BME280;25499;53.958;10.970;2023-12-04T12:58:53;101167.38;;;-2.09;100.00
39823;BME280;25499;53.958;10.970;2023-12-04T13:01:23;101164.50;;;-1.99;100.00
39823;BME280;25499;53.958;10.970;2023-12-04T13:03:52;101160.66;;;-2.07;100.00
39823;BME280;25499;53.958;10.970;2023-12-04T13:06:20;101157.50;;;-2.03;100.00
39823;BME280;25499;53.958;10.970;2023-12-04T13:08:47;101148.91;;;-2.05;100.00
39823;BME280;25499;53.958;10.970;2023-12-04T13:11:15;101153.34;;;-2.01;100.00
39823;BME280;25499;53.958;10.970;2023-12-04T13:13:41;101153.53;;;-1.98;100.00
39823;BME280;25499;53.958;10.970;2023-12-04T13:16:09;101149.47;;;-1.94;100.00
39823;BME280;25499;53.958;10.970;2023-12-04T13:18:38;101138.88;;;-2.02;100.00
39823;BME280;25499;53.958;10.970;2023-12-04T13:21:05;101145.00;;;-1.98;100.00
39823;BME280;25499;53.958;10.970;2023-12-04T13:23:35;101138.78;;;-2.03;100.00
39823;BME280;25499;53.958;10.970;2023-12-04T13:26:03;101129.03;;;-2.11;100.00
39823;BME280;25499;53.958;10.970;2023-12-04T13:28:31;101126.63;;;-2.08;100.00
39823;BME280;25499;53.958;10.970;2023-12-04T13:30:57;101123.22;;;-2.08;100.00
39823;BME280;25499;53.958;10.970;2023-12-04T13:33:24;101125.59;;;-2.11;100.00
39823;BME280;25499;53.958;10.970;2023-12-04T13:35:52;101114.34;;;-2.15;100.00
39823;BME280;25499;53.958;10.970;2023-12-04T13:38:20;101114.28;;;-2.16;100.00
39823;BME280;25499;53.958;10.970;2023-12-04T13:40:47;101112.69;;;-2.14;100.00
39823;BME280;25499;53.958;10.970;2023-12-04T13:43:26;101109.34;;;-2.13;100.00
39823;BME280;25499;53.958;10.970;2023-12-04T13:46:13;101097.97;;;-2.03;100.00
39823;BME280;25499;53.958;10.970;2023-12-04T13:48:40;101089.91;;;-2.11;100.00
39823;BME280;25499;53.958;10.970;2023-12-04T13:51:09;101090.63;;;-2.14;100.00
39823;BME280;25499;53.958;10.970;2023-12-04T13:53:36;101085.34;;;-2.00;100.00
39823;BME280;25499;53.958;10.970;2023-12-04T13:56:05;101083.63;;;-2.01;100.00
39823;BME280;25499;53.958;10.970;2023-12-04T13:58:51;101071.72;;;-2.01;100.00
39823;BME280;25499;53.958;10.970;2023-12-04T14:01:22;101062.09;;;-2.07;100.00
39823;BME280;25499;53.958;10.970;2023-12-04T14:03:51;101065.84;;;-2.00;100.00
39823;BME280;25499;53.958;10.970;2023-12-04T14:06:20;101063.47;;;-1.97;100.00
39823;BME280;25499;53.958;10.970;2023-12-04T14:08:47;101068.38;;;-1.83;100.00
39823;BME280;25499;53.958;10.970;2023-12-04T14:11:14;101070.94;;;-1.83;100.00
39823;BME280;25499;53.958;10.970;2023-12-04T14:13:41;101062.41;;;-1.84;100.00
39823;BME280;25499;53.958;10.970;2023-12-04T14:16:09;101064.38;;;-1.78;100.00
39823;BME280;25499;53.958;10.970;2023-12-04T14:18:36;101059.25;;;-1.80;100.00
39823;BME280;25499;53.958;10.970;2023-12-04T14:21:04;101061.06;;;-1.77;100.00
39823;BME280;25499;53.958;10.970;2023-12-04T14:23:32;101061.84;;;-1.78;100.00
39823;BME280;25499;53.958;10.970;2023-12-04T14:25:59;101058.34;;;-1.80;100.00
39823;BME280;25499;53.958;10.970;2023-12-04T14:28:26;101059.16;;;-1.81;100.00
39823;BME280;25499;53.958;10.970;2023-12-04T14:30:53;101049.06;;;-1.78;100.00
39823;BME280;25499;53.958;10.970;2023-12-04T14:33:20;101050.13;;;-1.75;100.00
39823;BME280;25499;53.958;10.970;2023-12-04T14:35:47;101039.84;;;-1.76;100.00
39823;BME280;25499;53.958;10.970;2023-12-04T14:38:14;101042.41;;;-1.76;100.00
39823;BME280;25499;53.958;10.970;2023-12-04T14:40:43;101043.97;;;-1.78;100.00
39823;BME280;25499;53.958;10.970;2023-12-04T14:43:10;101038.88;;;-1.78;100.00
39823;BME280;25499;53.958;10.970;2023-12-04T14:45:37;101037.72;;;-1.85;100.00
39823;BME280;25499;53.958;10.970;2023-12-04T14:48:04;101044.06;;;-1.77;100.00
39823;BME280;25499;53.958;10.970;2023-12-04T14:50:32;101036.56;;;-1.74;100.00
39823;BME280;25499;53.958;10.970;2023-12-04T14:53:00;101039.59;;;-1.81;100.00
39823;BME280;25499;53.958;10.970;2023-12-04T14:55:42;101032.97;;;-1.77;100.00
39823;BME280;25499;53.958;10.970;2023-12-04T14:58:29;101029.00;;;-1.72;100.00
39823;BME280;25499;53.958;10.970;2023-12-04T15:01:30;101026.19;;;-1.77;100.00
39823;BME280;25499;53.958;10.970;2023-12-04T15:04:14;101025.41;;;-1.76;100.00
39823;BME280;25499;53.958;10.970;2023-12-04T15:07:13;101024.38;;;-1.79;100.00
39823;BME280;25499;53.958;10.970;2023-12-04T15:09:57;101024.28;;;-1.64;100.00
39823;BME280;25499;53.958;10.970;2023-12-04T15:13:06;101016.88;;;-1.76;100.00
39823;BME280;25499;53.958;10.970;2023-12-04T15:15:54;101025.56;;;-1.73;100.00
39823;BME280;25499;53.958;10.970;2023-12-04T15:18:44;101018.88;;;-1.71;100.00
39823;BME280;25499;53.958;10.970;2023-12-04T15:21:32;101015.91;;;-1.78;100.00
39823;BME280;25499;53.958;10.970;2023-12-04T15:23:59;101010.81;;;-1.78;100.00
39823;BME280;25499;53.958;10.970;2023-12-04T15:26:25;101008.81;;;-1.84;100.00
39823;BME280;25499;53.958;10.970;2023-12-04T15:28:54;101004.66;;;-1.82;100.00
39823;BME280;25499;53.958;10.970;2023-12-04T15:31:21;100995.50;;;-1.78;100.00
39823;BME280;25499;53.958;10.970;2023-12-04T15:33:47;101007.63;;;-1.74;100.00
39823;BME280;25499;53.958;10.970;2023-12-04T15:36:14;101003.63;;;-1.69;100.00
39823;BME280;25499;53.958;10.970;2023-12-04T15:38:39;100997.84;;;-1.83;100.00
39823;BME280;25499;53.958;10.970;2023-12-04T15:41:06;100996.38;;;-1.78;100.00
39823;BME280;25499;53.958;10.970;2023-12-04T15:43:34;100989.03;;;-1.72;100.00
39823;BME280;25499;53.958;10.970;2023-12-04T15:46:01;100978.03;;;-1.71;100.00
39823;BME280;25499;53.958;10.970;2023-12-04T15:48:29;100980.41;;;-1.74;100.00
39823;BME280;25499;53.958;10.970;2023-12-04T15:50:55;100977.78;;;-1.75;100.00
39823;BME280;25499;53.958;10.970;2023-12-04T15:53:22;100977.72;;;-1.77;100.00
39823;BME280;25499;53.958;10.970;2023-12-04T15:55:48;100958.31;;;-1.73;100.00
39823;BME280;25499;53.958;10.970;2023-12-04T15:58:15;100960.31;;;-1.67;100.00
39823;BME280;25499;53.958;10.970;2023-12-04T16:00:43;100966.44;;;-1.64;100.00
39823;BME280;25499;53.958;10.970;2023-12-04T16:03:11;100957.53;;;-1.72;100.00
39823;BME280;25499;53.958;10.970;2023-12-04T16:05:36;100958.78;;;-1.64;100.00
39823;BME280;25499;53.958;10.970;2023-12-04T16:08:04;100953.44;;;-1.69;100.00
39823;BME280;25499;53.958;10.970;2023-12-04T16:10:31;100951.63;;;-1.71;100.00
39823;BME280;25499;53.958;10.970;2023-12-04T16:13:00;100953.72;;;-1.80;100.00
39823;BME280;25499;53.958;10.970;2023-12-04T16:15:26;100947.16;;;-1.75;100.00
39823;BME280;25499;53.958;10.970;2023-12-04T16:17:53;100951.06;;;-1.65;100.00
39823;BME280;25499;53.958;10.970;2023-12-04T16:20:23;100951.78;;;-1.68;100.00
39823;BME280;25499;53.958;10.970;2023-12-04T16:22:49;100952.81;;;-1.64;100.00
39823;BME280;25499;53.958;10.970;2023-12-04T16:25:17;100941.72;;;-1.65;100.00
39823;BME280;25499;53.958;10.970;2023-12-04T16:27:43;100934.06;;;-1.65;100.00
39823;BME280;25499;53.958;10.970;2023-12-04T16:30:12;100934.44;;;-1.57;100.00
39823;BME280;25499;53.958;10.970;2023-12-04T16:32:39;100949.31;;;-1.48;100.00
39823;BME280;25499;53.958;10.970;2023-12-04T16:35:06;100927.56;;;-1.58;100.00
39823;BME280;25499;53.958;10.970;2023-12-04T16:37:35;100930.22;;;-1.57;100.00
39823;BME280;25499;53.958;10.970;2023-12-04T16:40:07;100928.03;;;-1.49;100.00
39823;BME280;25499;53.958;10.970;2023-12-04T16:42:34;100932.47;;;-1.45;100.00
39823;BME280;25499;53.958;10.970;2023-12-04T16:45:01;100914.00;;;-1.39;100.00
39823;BME280;25499;53.958;10.970;2023-12-04T16:47:28;100910.53;;;-1.41;100.00
39823;BME280;25499;53.958;10.970;2023-12-04T16:49:57;100901.91;;;-1.43;100.00
39823;BME280;25499;53.958;10.970;2023-12-04T16:52:24;100897.13;;;-1.37;100.00
39823;BME280;25499;53.958;10.970;2023-12-04T16:54:53;100887.78;;;-1.37;100.00
39823;BME280;25499;53.958;10.970;2023-12-04T16:57:21;100886.59;;;-1.25;100.00
39823;BME280;25499;53.958;10.970;2023-12-04T16:59:49;100894.34;;;-1.24;100.00
39823;BME280;25499;53.958;10.970;2023-12-04T17:02:16;100888.19;;;-1.27;100.00
39823;BME280;25499;53.958;10.970;2023-12-04T17:04:43;100882.38;;;-1.25;100.00
39823;BME280;25499;53.958;10.970;2023-12-04T17:07:10;100896.75;;;-1.27;100.00
39823;BME280;25499;53.958;10.970;2023-12-04T17:09:37;100931.03;;;-1.22;100.00
39823;BME280;25499;53.958;10.970;2023-12-04T17:12:06;100914.88;;;-1.21;100.00
39823;BME280;25499;53.958;10.970;2023-12-04T17:14:33;100917.25;;;-1.25;100.00
39823;BME280;25499;53.958;10.970;2023-12-04T17:17:00;100913.16;;;-1.22;100.00
39823;BME280;25499;53.958;10.970;2023-12-04T17:19:27;100908.63;;;-1.27;100.00
39823;BME280;25499;53.958;10.970;2023-12-04T17:21:57;100902.94;;;-1.22;100.00
39823;BME280;25499;53.958;10.970;2023-12-04T17:24:25;100891.72;;;-1.25;100.00
39823;BME280;25499;53.958;10.970;2023-12-04T17:26:51;100891.72;;;-1.25;100.00
39823;BME280;25499;53.958;10.970;2023-12-04T17:29:20;100878.88;;;-1.27;100.00
39823;BME280;25499;53.958;10.970;2023-12-04T17:31:46;100875.38;;;-1.29;100.00
39823;BME280;25499;53.958;10.970;2023-12-04T17:34:14;100875.22;;;-1.32;100.00
39823;BME280;25499;53.958;10.970;2023-12-04T17:36:41;100874.41;;;-1.31;100.00
39823;BME280;25499;53.958;10.970;2023-12-04T17:39:13;100872.81;;;-1.29;100.00
39823;BME280;25499;53.958;10.970;2023-12-04T17:41:42;100871.78;;;-1.33;100.00
39823;BME280;25499;53.958;10.970;2023-12-04T17:44:11;100876.75;;;-1.36;100.00
39823;BME280;25499;53.958;10.970;2023-12-04T17:46:39;100874.22;;;-1.36;100.00
39823;BME280;25499;53.958;10.970;2023-12-04T17:49:07;100871.13;;;-1.28;100.00
39823;BME280;25499;53.958;10.970;2023-12-04T17:51:34;100863.09;;;-1.36;100.00
39823;BME280;25499;53.958;10.970;2023-12-04T17:54:02;100861.06;;;-1.43;100.00
39823;BME280;25499;53.958;10.970;2023-12-04T17:56:28;100852.47;;;-1.45;100.00
39823;BME280;25499;53.958;10.970;2023-12-04T17:58:55;100866.59;;;-1.34;100.00
39823;BME280;25499;53.958;10.970;2023-12-04T18:01:22;100862.31;;;-1.35;100.00
39823;BME280;25499;53.958;10.970;2023-12-04T18:03:51;100858.66;;;-1.40;100.00
39823;BME280;25499;53.958;10.970;2023-12-04T18:06:25;100866.25;;;-1.42;100.00
39823;BME280;25499;53.958;10.970;2023-12-04T18:08:51;100865.47;;;-1.41;100.00
39823;BME280;25499;53.958;10.970;2023-12-04T18:11:19;100872.16;;;-1.43;100.00
39823;BME280;25499;53.958;10.970;2023-12-04T18:13:46;100859.97;;;-1.48;100.00
39823;BME280;25499;53.958;10.970;2023-12-04T18:16:13;100860.75;;;-1.50;100.00
39823;BME280;25499;53.958;10.970;2023-12-04T18:18:42;100854.09;;;-1.47;100.00
39823;BME280;25499;53.958;10.970;2023-12-04T18:21:10;100856.47;;;-1.51;100.00
39823;BME280;25499;53.958;10.970;2023-12-04T18:23:38;100856.56;;;-1.49;100.00
39823;BME280;25499;53.958;10.970;2023-12-04T18:26:07;100854.78;;;-1.50;100.00
39823;BME280;25499;53.958;10.970;2023-12-04T18:28:35;100853.94;;;-1.51;100.00
39823;BME280;25499;53.958;10.970;2023-12-04T18:31:03;100845.19;;;-1.56;100.00
39823;BME280;25499;53.958;10.970;2023-12-04T18:33:31;100839.94;;;-1.59;100.00
39823;BME280;25499;53.958;10.970;2023-12-04T18:36:01;100848.69;;;-1.54;100.00
39823;BME280;25499;53.958;10.970;2023-12-04T18:38:36;100848.00;;;-1.50;100.00
39823;BME280;25499;53.958;10.970;2023-12-04T18:41:07;100846.78;;;-1.58;100.00
39823;BME280;25499;53.958;10.970;2023-12-04T18:43:35;100852.00;;;-1.55;100.00
39823;BME280;25499;53.958;10.970;2023-12-04T18:46:02;100859.03;;;-1.51;100.00
39823;BME280;25499;53.958;10.970;2023-12-04T18:48:31;100850.13;;;-1.59;100.00
39823;BME280;25499;53.958;10.970;2023-12-04T18:51:00;100852.69;;;-1.59;100.00
39823;BME280;25499;53.958;10.970;2023-12-04T18:53:27;100856.19;;;-1.57;100.00
39823;BME280;25499;53.958;10.970;2023-12-04T18:55:56;100863.84;;;-1.57;100.00
39823;BME280;25499;53.958;10.970;2023-12-04T18:58:22;100856.69;;;-1.64;100.00
39823;BME280;25499;53.958;10.970;2023-12-04T19:00:52;100857.63;;;-1.62;100.00
39823;BME280;25499;53.958;10.970;2023-12-04T19:03:19;100859.41;;;-1.61;100.00
39823;BME280;25499;53.958;10.970;2023-12-04T19:05:46;100865.44;;;-1.59;100.00
39823;BME280;25499;53.958;10.970;2023-12-04T19:08:13;100856.84;;;-1.61;100.00
39823;BME280;25499;53.958;10.970;2023-12-04T19:10:41;100862.66;;;-1.63;100.00
39823;BME280;25499;53.958;10.970;2023-12-04T19:13:09;100866.97;;;-1.62;100.00
39823;BME280;25499;53.958;10.970;2023-12-04T19:15:36;100860.94;;;-1.64;100.00
39823;BME280;25499;53.958;10.970;2023-12-04T19:18:03;100865.44;;;-1.59;100.00
39823;BME280;25499;53.958;10.970;2023-12-04T19:20:30;100866.41;;;-1.57;100.00
39823;BME280;25499;53.958;10.970;2023-12-04T19:22:57;100874.63;;;-1.62;100.00
39823;BME280;25499;53.958;10.970;2023-12-04T19:25:26;100873.47;;;-1.51;100.00
39823;BME280;25499;53.958;10.970;2023-12-04T19:27:54;100859.03;;;-1.69;100.00
39823;BME280;25499;53.958;10.970;2023-12-04T19:30:22;100873.03;;;-1.60;100.00
39823;BME280;25499;53.958;10.970;2023-12-04T19:32:49;100858.31;;;-1.66;100.00
39823;BME280;25499;53.958;10.970;2023-12-04T19:35:15;100868.22;;;-1.72;100.00
39823;BME280;25499;53.958;10.970;2023-12-04T19:37:42;100860.63;;;-1.71;100.00
39823;BME280;25499;53.958;10.970;2023-12-04T19:40:12;100852.38;;;-1.65;100.00
39823;BME280;25499;53.958;10.970;2023-12-04T19:42:39;100856.41;;;-1.70;100.00
39823;BME280;25499;53.958;10.970;2023-12-04T19:45:07;100848.66;;;-1.72;100.00
39823;BME280;25499;53.958;10.970;2023-12-04T19:47:35;100855.53;;;-1.71;100.00